sensor_id;sensor_type;location;lat;lon;timestamp;temperature;humidity
12329;DHT22;6230;52.390;10.256;2023-11-21T00:00:50;12.00;74.90
12329;DHT22;6230;52.390;10.256;2023-11-21T00:03:15;12.00;75.00
12329;DHT22;6230;52.390;10.256;2023-11-21T00:05:41;12.00;75.00
12329;DHT22;6230;52.390;10.256;2023-11-21T00:08:10;12.00;75.00
12329;DHT22;6230;52.390;10.256;2023-11-21T00:10:36;12.00;74.90
12329;DHT22;6230;52.390;10.256;2023-11-21T00:13:04;12.00;74.90
12329;DHT22;6230;52.390;10.256;2023-11-21T00:15:29;12.00;74.90
12329;DHT22;6230;52.390;10.256;2023-11-21T00:17:55;12.00;74.90
12329;DHT22;6230;52.390;10.256;2023-11-21T00:20:20;12.00;74.90
12329;DHT22;6230;52.390;10.256;2023-11-21T00:22:46;12.00;74.80
12329;DHT22;6230;52.390;10.256;2023-11-21T00:25:12;12.00;74.80
12329;DHT22;6230;52.390;10.256;2023-11-21T00:27:39;12.00;74.80
12329;DHT22;6230;52.390;10.256;2023-11-21T00:30:05;12.00;74.80
12329;DHT22;6230;52.390;10.256;2023-11-21T00:32:32;12.00;74.80
12329;DHT22;6230;52.390;10.256;2023-11-21T00:34:57;12.00;74.80
12329;DHT22;6230;52.390;10.256;2023-11-21T00:37:23;12.00;74.90
12329;DHT22;6230;52.390;10.256;2023-11-21T00:39:49;12.00;74.80
12329;DHT22;6230;52.390;10.256;2023-11-21T00:42:14;12.00;74.70
12329;DHT22;6230;52.390;10.256;2023-11-21T00:44:40;12.00;74.80
12329;DHT22;6230;52.390;10.256;2023-11-21T00:47:05;12.00;74.80
12329;DHT22;6230;52.390;10.256;2023-11-21T00:49:31;12.00;74.80
12329;DHT22;6230;52.390;10.256;2023-11-21T00:51:57;12.00;74.70
12329;DHT22;6230;52.390;10.256;2023-11-21T00:54:23;12.00;74.70
12329;DHT22;6230;52.390;10.256;2023-11-21T00:56:49;12.00;74.70
12329;DHT22;6230;52.390;10.256;2023-11-21T00:59:14;12.00;74.80
12329;DHT22;6230;52.390;10.256;2023-11-21T01:01:40;12.00;74.80
12329;DHT22;6230;52.390;10.256;2023-11-21T01:04:05;11.90;74.70
12329;DHT22;6230;52.390;10.256;2023-11-21T01:06:32;11.90;74.70
12329;DHT22;6230;52.390;10.256;2023-11-21T01:08:58;11.90;74.80
12329;DHT22;6230;52.390;10.256;2023-11-21T01:11:23;11.90;74.80
12329;DHT22;6230;52.390;10.256;2023-11-21T01:13:49;11.90;74.80
12329;DHT22;6230;52.390;10.256;2023-11-21T01:16:14;11.90;74.80
12329;DHT22;6230;52.390;10.256;2023-11-21T01:18:40;11.90;74.80
12329;DHT22;6230;52.390;10.256;2023-11-21T01:21:06;11.90;74.70
12329;DHT22;6230;52.390;10.256;2023-11-21T01:23:33;11.90;74.80
12329;DHT22;6230;52.390;10.256;2023-11-21T01:25:58;11.90;74.80
12329;DHT22;6230;52.390;10.256;2023-11-21T01:28:24;11.90;74.80
12329;DHT22;6230;52.390;10.256;2023-11-21T01:30:49;11.90;74.80
12329;DHT22;6230;52.390;10.256;2023-11-21T01:33:15;11.80;74.80
12329;DHT22;6230;52.390;10.256;2023-11-21T01:35:41;11.90;74.90
12329;DHT22;6230;52.390;10.256;2023-11-21T01:38:07;11.90;74.80
12329;DHT22;6230;52.390;10.256;2023-11-21T01:40:34;11.90;74.80
12329;DHT22;6230;52.390;10.256;2023-11-21T01:43:00;11.90;74.80
12329;DHT22;6230;52.390;10.256;2023-11-21T01:45:25;11.90;74.80
12329;DHT22;6230;52.390;10.256;2023-11-21T01:47:51;11.90;74.80
12329;DHT22;6230;52.390;10.256;2023-11-21T01:50:18;11.90;74.80
12329;DHT22;6230;52.390;10.256;2023-11-21T01:52:45;11.90;74.80
12329;DHT22;6230;52.390;10.256;2023-11-21T01:55:11;11.90;74.80
12329;DHT22;6230;52.390;10.256;2023-11-21T01:57:39;11.90;74.80
12329;DHT22;6230;52.390;10.256;2023-11-21T02:00:06;11.80;74.80
12329;DHT22;6230;52.390;10.256;2023-11-21T02:02:42;11.80;74.80
12329;DHT22;6230;52.390;10.256;2023-11-21T02:05:13;11.80;74.80
12329;DHT22;6230;52.390;10.256;2023-11-21T02:07:40;11.80;74.90
12329;DHT22;6230;52.390;10.256;2023-11-21T02:10:09;11.80;74.90
12329;DHT22;6230;52.390;10.256;2023-11-21T02:12:35;11.80;74.90
12329;DHT22;6230;52.390;10.256;2023-11-21T02:15:04;11.80;74.90
12329;DHT22;6230;52.390;10.256;2023-11-21T02:17:35;11.80;74.90
12329;DHT22;6230;52.390;10.256;2023-11-21T02:20:01;11.80;74.80
12329;DHT22;6230;52.390;10.256;2023-11-21T02:22:31;11.80;74.80
12329;DHT22;6230;52.390;10.256;2023-11-21T02:24:59;11.80;74.80
12329;DHT22;6230;52.390;10.256;2023-11-21T02:27:24;11.80;74.80
12329;DHT22;6230;52.390;10.256;2023-11-21T02:29:52;11.80;74.80
12329;DHT22;6230;52.390;10.256;2023-11-21T02:32:18;11.80;74.80
12329;DHT22;6230;52.390;10.256;2023-11-21T02:34:44;11.80;74.70
12329;DHT22;6230;52.390;10.256;2023-11-21T02:37:10;11.90;74.80
12329;DHT22;6230;52.390;10.256;2023-11-21T02:39:36;11.80;74.80
12329;DHT22;6230;52.390;10.256;2023-11-21T02:42:01;11.80;74.80
12329;DHT22;6230;52.390;10.256;2023-11-21T02:44:27;11.80;74.80
12329;DHT22;6230;52.390;10.256;2023-11-21T02:46:52;11.80;74.80
12329;DHT22;6230;52.390;10.256;2023-11-21T02:49:18;11.80;74.80
12329;DHT22;6230;52.390;10.256;2023-11-21T02:51:43;11.80;74.70
12329;DHT22;6230;52.390;10.256;2023-11-21T02:54:09;11.80;74.70
12329;DHT22;6230;52.390;10.256;2023-11-21T02:56:34;11.80;74.70
12329;DHT22;6230;52.390;10.256;2023-11-21T02:59:01;11.80;74.70
12329;DHT22;6230;52.390;10.256;2023-11-21T03:01:26;11.90;74.70
12329;DHT22;6230;52.390;10.256;2023-11-21T03:03:53;11.80;74.80
12329;DHT22;6230;52.390;10.256;2023-11-21T03:06:22;11.80;74.70
12329;DHT22;6230;52.390;10.256;2023-11-21T03:08:48;11.90;74.70
12329;DHT22;6230;52.390;10.256;2023-11-21T03:11:13;11.90;74.70
12329;DHT22;6230;52.390;10.256;2023-11-21T03:13:43;11.90;74.60
12329;DHT22;6230;52.390;10.256;2023-11-21T03:16:09;11.90;74.70
12329;DHT22;6230;52.390;10.256;2023-11-21T03:18:38;11.90;74.70
12329;DHT22;6230;52.390;10.256;2023-11-21T03:21:07;12.00;74.70
12329;DHT22;6230;52.390;10.256;2023-11-21T03:23:34;11.90;74.60
12329;DHT22;6230;52.390;10.256;2023-11-21T03:26:01;11.90;74.70
12329;DHT22;6230;52.390;10.256;2023-11-21T03:28:26;11.90;74.70
12329;DHT22;6230;52.390;10.256;2023-11-21T03:30:53;11.90;74.50
12329;DHT22;6230;52.390;10.256;2023-11-21T03:33:18;11.90;74.60
12329;DHT22;6230;52.390;10.256;2023-11-21T03:35:44;12.00;74.70
12329;DHT22;6230;52.390;10.256;2023-11-21T03:38:10;12.00;74.60
12329;DHT22;6230;52.390;10.256;2023-11-21T03:40:35;12.00;74.60
12329;DHT22;6230;52.390;10.256;2023-11-21T03:43:01;12.00;74.70
12329;DHT22;6230;52.390;10.256;2023-11-21T03:45:27;11.90;74.50
12329;DHT22;6230;52.390;10.256;2023-11-21T03:47:52;12.00;74.60
12329;DHT22;6230;52.390;10.256;2023-11-21T03:50:18;12.00;74.60
12329;DHT22;6230;52.390;10.256;2023-11-21T03:52:43;12.00;74.50
12329;DHT22;6230;52.390;10.256;2023-11-21T03:55:09;12.00;74.60
12329;DHT22;6230;52.390;10.256;2023-11-21T03:57:36;12.00;74.60
12329;DHT22;6230;52.390;10.256;2023-11-21T04:00:02;12.00;74.60
12329;DHT22;6230;52.390;10.256;2023-11-21T04:02:29;12.00;74.50
12329;DHT22;6230;52.390;10.256;2023-11-21T04:04:56;12.00;74.50
12329;DHT22;6230;52.390;10.256;2023-11-21T04:07:22;12.00;74.50
12329;DHT22;6230;52.390;10.256;2023-11-21T04:09:47;12.10;74.50
12329;DHT22;6230;52.390;10.256;2023-11-21T04:12:13;12.00;74.50
12329;DHT22;6230;52.390;10.256;2023-11-21T04:14:39;12.00;74.50
12329;DHT22;6230;52.390;10.256;2023-11-21T04:17:04;12.00;74.50
12329;DHT22;6230;52.390;10.256;2023-11-21T04:19:30;12.10;74.50
12329;DHT22;6230;52.390;10.256;2023-11-21T04:21:55;12.00;74.50
12329;DHT22;6230;52.390;10.256;2023-11-21T04:24:21;12.10;74.50
12329;DHT22;6230;52.390;10.256;2023-11-21T04:26:46;12.10;74.50
12329;DHT22;6230;52.390;10.256;2023-11-21T04:29:12;12.10;74.50
12329;DHT22;6230;52.390;10.256;2023-11-21T04:31:37;12.10;74.50
12329;DHT22;6230;52.390;10.256;2023-11-21T04:34:03;12.10;74.90
12329;DHT22;6230;52.390;10.256;2023-11-21T04:36:30;12.10;74.50
12329;DHT22;6230;52.390;10.256;2023-11-21T04:38:56;12.10;74.50
12329;DHT22;6230;52.390;10.256;2023-11-21T04:41:22;12.10;74.50
12329;DHT22;6230;52.390;10.256;2023-11-21T04:43:47;12.10;74.50
12329;DHT22;6230;52.390;10.256;2023-11-21T04:46:13;12.10;74.40
12329;DHT22;6230;52.390;10.256;2023-11-21T04:48:38;12.10;74.50
12329;DHT22;6230;52.390;10.256;2023-11-21T04:51:04;12.10;74.50
12329;DHT22;6230;52.390;10.256;2023-11-21T04:53:30;12.10;74.40
12329;DHT22;6230;52.390;10.256;2023-11-21T04:55:55;12.10;74.40
12329;DHT22;6230;52.390;10.256;2023-11-21T04:58:21;12.20;74.50
12329;DHT22;6230;52.390;10.256;2023-11-21T05:00:46;12.20;74.50
12329;DHT22;6230;52.390;10.256;2023-11-21T05:03:12;12.20;74.50
12329;DHT22;6230;52.390;10.256;2023-11-21T05:05:38;12.20;74.40
12329;DHT22;6230;52.390;10.256;2023-11-21T05:08:03;12.20;74.50
12329;DHT22;6230;52.390;10.256;2023-11-21T05:10:30;12.20;74.40
12329;DHT22;6230;52.390;10.256;2023-11-21T05:12:55;12.20;74.50
12329;DHT22;6230;52.390;10.256;2023-11-21T05:15:21;12.20;74.50
12329;DHT22;6230;52.390;10.256;2023-11-21T05:17:47;12.20;74.40
12329;DHT22;6230;52.390;10.256;2023-11-21T05:20:16;12.20;74.40
12329;DHT22;6230;52.390;10.256;2023-11-21T05:22:48;12.20;74.50
12329;DHT22;6230;52.390;10.256;2023-11-21T05:25:14;12.20;74.50
12329;DHT22;6230;52.390;10.256;2023-11-21T05:27:40;12.20;74.60
12329;DHT22;6230;52.390;10.256;2023-11-21T05:30:06;12.20;74.60
12329;DHT22;6230;52.390;10.256;2023-11-21T05:32:35;12.20;74.60
12329;DHT22;6230;52.390;10.256;2023-11-21T05:35:00;12.20;74.70
12329;DHT22;6230;52.390;10.256;2023-11-21T05:37:26;12.10;74.70
12329;DHT22;6230;52.390;10.256;2023-11-21T05:39:53;12.10;74.70
12329;DHT22;6230;52.390;10.256;2023-11-21T05:42:22;12.20;74.90
12329;DHT22;6230;52.390;10.256;2023-11-21T05:44:48;12.20;74.70
12329;DHT22;6230;52.390;10.256;2023-11-21T05:47:14;12.10;74.70
12329;DHT22;6230;52.390;10.256;2023-11-21T05:49:40;12.20;74.80
12329;DHT22;6230;52.390;10.256;2023-11-21T05:52:05;12.20;74.70
12329;DHT22;6230;52.390;10.256;2023-11-21T05:54:31;12.20;74.70
12329;DHT22;6230;52.390;10.256;2023-11-21T05:56:59;12.10;74.70
12329;DHT22;6230;52.390;10.256;2023-11-21T05:59:24;12.10;74.70
12329;DHT22;6230;52.390;10.256;2023-11-21T06:01:50;12.10;74.80
12329;DHT22;6230;52.390;10.256;2023-11-21T06:04:15;12.00;74.90
12329;DHT22;6230;52.390;10.256;2023-11-21T06:06:41;12.00;74.90
12329;DHT22;6230;52.390;10.256;2023-11-21T06:09:06;12.00;75.00
12329;DHT22;6230;52.390;10.256;2023-11-21T06:11:34;11.90;74.90
12329;DHT22;6230;52.390;10.256;2023-11-21T06:14:00;11.90;75.00
12329;DHT22;6230;52.390;10.256;2023-11-21T06:16:25;11.90;75.00
12329;DHT22;6230;52.390;10.256;2023-11-21T06:18:51;11.90;75.00
12329;DHT22;6230;52.390;10.256;2023-11-21T06:21:16;11.90;75.10
12329;DHT22;6230;52.390;10.256;2023-11-21T06:23:43;11.80;75.10
12329;DHT22;6230;52.390;10.256;2023-11-21T06:26:08;11.80;75.00
12329;DHT22;6230;52.390;10.256;2023-11-21T06:28:35;11.80;75.00
12329;DHT22;6230;52.390;10.256;2023-11-21T06:31:01;11.70;75.80
12329;DHT22;6230;52.390;10.256;2023-11-21T06:33:32;11.70;75.00
12329;DHT22;6230;52.390;10.256;2023-11-21T06:35:57;11.60;75.10
12329;DHT22;6230;52.390;10.256;2023-11-21T06:38:23;11.60;75.10
12329;DHT22;6230;52.390;10.256;2023-11-21T06:40:49;11.60;75.20
12329;DHT22;6230;52.390;10.256;2023-11-21T06:43:14;11.50;75.20
12329;DHT22;6230;52.390;10.256;2023-11-21T06:45:40;11.50;75.20
12329;DHT22;6230;52.390;10.256;2023-11-21T06:48:06;11.40;75.20
12329;DHT22;6230;52.390;10.256;2023-11-21T06:50:31;11.40;75.30
12329;DHT22;6230;52.390;10.256;2023-11-21T06:52:57;11.30;75.20
12329;DHT22;6230;52.390;10.256;2023-11-21T06:55:22;11.30;75.30
12329;DHT22;6230;52.390;10.256;2023-11-21T06:57:48;11.30;75.20
12329;DHT22;6230;52.390;10.256;2023-11-21T07:00:15;11.20;75.30
12329;DHT22;6230;52.390;10.256;2023-11-21T07:02:43;11.20;75.40
12329;DHT22;6230;52.390;10.256;2023-11-21T07:05:09;11.20;75.40
12329;DHT22;6230;52.390;10.256;2023-11-21T07:07:35;11.20;75.30
12329;DHT22;6230;52.390;10.256;2023-11-21T07:10:01;11.20;75.20
12329;DHT22;6230;52.390;10.256;2023-11-21T07:12:31;11.20;75.20
12329;DHT22;6230;52.390;10.256;2023-11-21T07:14:58;11.20;75.30
12329;DHT22;6230;52.390;10.256;2023-11-21T07:17:23;11.20;75.10
12329;DHT22;6230;52.390;10.256;2023-11-21T07:19:49;11.20;75.10
12329;DHT22;6230;52.390;10.256;2023-11-21T07:22:15;11.20;75.00
12329;DHT22;6230;52.390;10.256;2023-11-21T07:24:48;11.20;75.00
12329;DHT22;6230;52.390;10.256;2023-11-21T07:27:15;11.20;75.10
12329;DHT22;6230;52.390;10.256;2023-11-21T07:29:40;11.10;75.10
12329;DHT22;6230;52.390;10.256;2023-11-21T07:32:06;11.10;75.20
12329;DHT22;6230;52.390;10.256;2023-11-21T07:34:31;11.10;75.30
12329;DHT22;6230;52.390;10.256;2023-11-21T07:36:57;11.00;75.20
12329;DHT22;6230;52.390;10.256;2023-11-21T07:39:22;11.00;75.30
12329;DHT22;6230;52.390;10.256;2023-11-21T07:41:48;11.00;75.30
12329;DHT22;6230;52.390;10.256;2023-11-21T07:44:15;11.00;75.30
12329;DHT22;6230;52.390;10.256;2023-11-21T07:46:41;11.00;75.40
12329;DHT22;6230;52.390;10.256;2023-11-21T07:49:06;11.00;75.30
12329;DHT22;6230;52.390;10.256;2023-11-21T07:51:32;11.00;75.40
12329;DHT22;6230;52.390;10.256;2023-11-21T07:53:57;11.00;75.40
12329;DHT22;6230;52.390;10.256;2023-11-21T07:56:23;11.00;75.30
12329;DHT22;6230;52.390;10.256;2023-11-21T07:58:48;11.00;75.20
12329;DHT22;6230;52.390;10.256;2023-11-21T08:01:15;11.10;75.10
12329;DHT22;6230;52.390;10.256;2023-11-21T08:03:40;11.10;75.10
12329;DHT22;6230;52.390;10.256;2023-11-21T08:06:06;11.10;75.10
12329;DHT22;6230;52.390;10.256;2023-11-21T08:08:33;11.10;75.00
12329;DHT22;6230;52.390;10.256;2023-11-21T08:10:58;11.00;74.90
12329;DHT22;6230;52.390;10.256;2023-11-21T08:13:27;11.00;75.00
12329;DHT22;6230;52.390;10.256;2023-11-21T08:15:58;11.00;75.10
12329;DHT22;6230;52.390;10.256;2023-11-21T08:18:27;10.90;75.20
12329;DHT22;6230;52.390;10.256;2023-11-21T08:20:54;10.90;75.10
12329;DHT22;6230;52.390;10.256;2023-11-21T08:23:20;10.90;75.30
12329;DHT22;6230;52.390;10.256;2023-11-21T08:25:46;10.90;75.30
12329;DHT22;6230;52.390;10.256;2023-11-21T08:28:12;10.90;75.30
12329;DHT22;6230;52.390;10.256;2023-11-21T08:30:41;10.90;75.20
12329;DHT22;6230;52.390;10.256;2023-11-21T08:33:07;10.90;75.20
12329;DHT22;6230;52.390;10.256;2023-11-21T08:35:34;11.00;75.20
12329;DHT22;6230;52.390;10.256;2023-11-21T08:38:00;11.00;75.20
12329;DHT22;6230;52.390;10.256;2023-11-21T08:40:26;11.00;75.20
12329;DHT22;6230;52.390;10.256;2023-11-21T08:42:51;10.90;75.20
12329;DHT22;6230;52.390;10.256;2023-11-21T08:45:18;10.90;75.20
12329;DHT22;6230;52.390;10.256;2023-11-21T08:47:44;10.90;75.30
12329;DHT22;6230;52.390;10.256;2023-11-21T08:50:10;10.90;75.30
12329;DHT22;6230;52.390;10.256;2023-11-21T08:52:37;10.90;75.40
12329;DHT22;6230;52.390;10.256;2023-11-21T08:55:04;10.90;75.50
12329;DHT22;6230;52.390;10.256;2023-11-21T08:57:36;10.90;75.50
12329;DHT22;6230;52.390;10.256;2023-11-21T09:00:03;11.00;75.50
12329;DHT22;6230;52.390;10.256;2023-11-21T09:02:32;11.00;75.50
12329;DHT22;6230;52.390;10.256;2023-11-21T09:04:59;11.10;75.50
12329;DHT22;6230;52.390;10.256;2023-11-21T09:07:24;11.10;75.30
12329;DHT22;6230;52.390;10.256;2023-11-21T09:09:51;11.10;75.30
12329;DHT22;6230;52.390;10.256;2023-11-21T09:12:16;11.10;75.30
12329;DHT22;6230;52.390;10.256;2023-11-21T09:14:43;11.10;75.40
12329;DHT22;6230;52.390;10.256;2023-11-21T09:17:09;11.10;75.40
12329;DHT22;6230;52.390;10.256;2023-11-21T09:19:37;11.20;75.50
12329;DHT22;6230;52.390;10.256;2023-11-21T09:22:04;11.20;75.60
12329;DHT22;6230;52.390;10.256;2023-11-21T09:24:33;11.20;75.50
12329;DHT22;6230;52.390;10.256;2023-11-21T09:26:59;11.30;75.40
12329;DHT22;6230;52.390;10.256;2023-11-21T09:29:28;11.30;75.40
12329;DHT22;6230;52.390;10.256;2023-11-21T09:31:54;11.40;75.40
12329;DHT22;6230;52.390;10.256;2023-11-21T09:34:20;11.40;75.30
12329;DHT22;6230;52.390;10.256;2023-11-21T09:36:46;11.40;75.40
12329;DHT22;6230;52.390;10.256;2023-11-21T09:39:12;11.40;75.40
12329;DHT22;6230;52.390;10.256;2023-11-21T09:41:51;11.40;75.40
12329;DHT22;6230;52.390;10.256;2023-11-21T09:44:22;11.40;75.40
12329;DHT22;6230;52.390;10.256;2023-11-21T09:46:52;11.40;75.30
12329;DHT22;6230;52.390;10.256;2023-11-21T09:49:23;11.50;75.30
12329;DHT22;6230;52.390;10.256;2023-11-21T09:51:54;11.50;75.30
12329;DHT22;6230;52.390;10.256;2023-11-21T09:54:20;11.40;75.30
12329;DHT22;6230;52.390;10.256;2023-11-21T09:56:47;11.40;75.20
12329;DHT22;6230;52.390;10.256;2023-11-21T09:59:15;11.40;75.40
12329;DHT22;6230;52.390;10.256;2023-11-21T10:01:41;11.50;75.60
12329;DHT22;6230;52.390;10.256;2023-11-21T10:04:08;11.40;75.40
12329;DHT22;6230;52.390;10.256;2023-11-21T10:06:41;11.30;75.30
12329;DHT22;6230;52.390;10.256;2023-11-21T10:09:12;11.30;75.40
12329;DHT22;6230;52.390;10.256;2023-11-21T10:11:42;11.30;75.50
12329;DHT22;6230;52.390;10.256;2023-11-21T10:14:10;11.30;75.60
12329;DHT22;6230;52.390;10.256;2023-11-21T10:16:38;11.30;75.50
12329;DHT22;6230;52.390;10.256;2023-11-21T10:19:05;11.40;75.70
12329;DHT22;6230;52.390;10.256;2023-11-21T10:21:32;11.50;75.70
12329;DHT22;6230;52.390;10.256;2023-11-21T10:23:59;11.50;75.50
12329;DHT22;6230;52.390;10.256;2023-11-21T10:26:26;11.60;75.40
12329;DHT22;6230;52.390;10.256;2023-11-21T10:28:58;11.60;75.30
12329;DHT22;6230;52.390;10.256;2023-11-21T10:31:25;11.60;75.20
12329;DHT22;6230;52.390;10.256;2023-11-21T10:33:52;11.70;75.20
12329;DHT22;6230;52.390;10.256;2023-11-21T10:36:27;11.70;75.00
12329;DHT22;6230;52.390;10.256;2023-11-21T10:38:54;11.70;75.10
12329;DHT22;6230;52.390;10.256;2023-11-21T10:41:20;11.60;75.10
12329;DHT22;6230;52.390;10.256;2023-11-21T10:43:46;11.60;75.20
12329;DHT22;6230;52.390;10.256;2023-11-21T10:46:13;11.60;75.10
12329;DHT22;6230;52.390;10.256;2023-11-21T10:48:43;11.60;75.20
12329;DHT22;6230;52.390;10.256;2023-11-21T10:51:09;11.70;75.30
12329;DHT22;6230;52.390;10.256;2023-11-21T10:53:42;11.60;75.10
12329;DHT22;6230;52.390;10.256;2023-11-21T10:56:08;11.60;75.30
12329;DHT22;6230;52.390;10.256;2023-11-21T10:58:43;11.60;75.40
12329;DHT22;6230;52.390;10.256;2023-11-21T11:01:09;11.60;75.40
12329;DHT22;6230;52.390;10.256;2023-11-21T11:03:37;11.60;76.30
12329;DHT22;6230;52.390;10.256;2023-11-21T11:06:05;11.70;75.50
12329;DHT22;6230;52.390;10.256;2023-11-21T11:08:34;11.70;75.30
12329;DHT22;6230;52.390;10.256;2023-11-21T11:11:00;11.80;75.30
12329;DHT22;6230;52.390;10.256;2023-11-21T11:13:26;11.80;75.10
12329;DHT22;6230;52.390;10.256;2023-11-21T11:15:58;11.90;75.00
12329;DHT22;6230;52.390;10.256;2023-11-21T11:18:32;11.90;75.10
12329;DHT22;6230;52.390;10.256;2023-11-21T11:21:14;11.90;75.00
12329;DHT22;6230;52.390;10.256;2023-11-21T11:27:02;12.00;75.00
12329;DHT22;6230;52.390;10.256;2023-11-21T11:29:46;12.00;74.90
12329;DHT22;6230;52.390;10.256;2023-11-21T11:32:31;12.00;74.90
12329;DHT22;6230;52.390;10.256;2023-11-21T11:35:10;12.00;74.90
12329;DHT22;6230;52.390;10.256;2023-11-21T11:37:42;12.00;74.90
12329;DHT22;6230;52.390;10.256;2023-11-21T11:40:08;12.00;74.90
12329;DHT22;6230;52.390;10.256;2023-11-21T11:42:36;12.00;75.00
12329;DHT22;6230;52.390;10.256;2023-11-21T11:45:01;12.00;74.90
12329;DHT22;6230;52.390;10.256;2023-11-21T11:47:31;12.00;75.00
12329;DHT22;6230;52.390;10.256;2023-11-21T11:50:10;12.10;75.10
12329;DHT22;6230;52.390;10.256;2023-11-21T11:52:43;12.10;75.00
12329;DHT22;6230;52.390;10.256;2023-11-21T11:55:13;12.10;75.00
12329;DHT22;6230;52.390;10.256;2023-11-21T11:57:40;12.20;75.10
12329;DHT22;6230;52.390;10.256;2023-11-21T12:00:12;12.20;75.00
12329;DHT22;6230;52.390;10.256;2023-11-21T12:02:41;12.20;74.90
12329;DHT22;6230;52.390;10.256;2023-11-21T12:05:11;12.20;74.80
12329;DHT22;6230;52.390;10.256;2023-11-21T12:07:57;12.10;74.90
12329;DHT22;6230;52.390;10.256;2023-11-21T12:10:34;12.10;75.20
12329;DHT22;6230;52.390;10.256;2023-11-21T12:13:01;12.10;75.30
12329;DHT22;6230;52.390;10.256;2023-11-21T12:15:28;12.10;75.30
12329;DHT22;6230;52.390;10.256;2023-11-21T12:17:57;12.10;75.40
12329;DHT22;6230;52.390;10.256;2023-11-21T12:20:24;12.20;75.40
12329;DHT22;6230;52.390;10.256;2023-11-21T12:22:52;12.20;75.20
12329;DHT22;6230;52.390;10.256;2023-11-21T12:25:22;12.20;75.20
12329;DHT22;6230;52.390;10.256;2023-11-21T12:27:49;12.30;75.20
12329;DHT22;6230;52.390;10.256;2023-11-21T12:30:17;12.30;75.10
12329;DHT22;6230;52.390;10.256;2023-11-21T12:32:43;12.30;74.90
12329;DHT22;6230;52.390;10.256;2023-11-21T12:35:12;12.30;74.80
12329;DHT22;6230;52.390;10.256;2023-11-21T12:37:38;12.40;74.80
12329;DHT22;6230;52.390;10.256;2023-11-21T12:40:09;12.30;74.60
12329;DHT22;6230;52.390;10.256;2023-11-21T12:42:39;12.30;74.50
12329;DHT22;6230;52.390;10.256;2023-11-21T12:45:18;12.30;74.50
12329;DHT22;6230;52.390;10.256;2023-11-21T12:47:49;12.30;74.30
12329;DHT22;6230;52.390;10.256;2023-11-21T12:50:22;12.30;74.50
12329;DHT22;6230;52.390;10.256;2023-11-21T12:52:57;12.20;74.50
12329;DHT22;6230;52.390;10.256;2023-11-21T12:55:24;12.30;74.50
12329;DHT22;6230;52.390;10.256;2023-11-21T12:57:55;12.20;74.40
12329;DHT22;6230;52.390;10.256;2023-11-21T13:00:29;12.20;74.50
12329;DHT22;6230;52.390;10.256;2023-11-21T13:02:58;12.20;74.40
12329;DHT22;6230;52.390;10.256;2023-11-21T13:05:34;12.20;74.40
12329;DHT22;6230;52.390;10.256;2023-11-21T13:08:03;12.20;74.40
12329;DHT22;6230;52.390;10.256;2023-11-21T13:10:31;12.10;74.30
12329;DHT22;6230;52.390;10.256;2023-11-21T13:12:58;12.10;74.30
12329;DHT22;6230;52.390;10.256;2023-11-21T13:15:27;12.10;74.30
12329;DHT22;6230;52.390;10.256;2023-11-21T13:17:54;12.00;74.30
12329;DHT22;6230;52.390;10.256;2023-11-21T13:20:21;12.00;74.40
12329;DHT22;6230;52.390;10.256;2023-11-21T13:22:56;12.00;74.30
12329;DHT22;6230;52.390;10.256;2023-11-21T13:25:24;12.00;74.40
12329;DHT22;6230;52.390;10.256;2023-11-21T13:27:53;12.00;74.30
12329;DHT22;6230;52.390;10.256;2023-11-21T13:30:19;11.90;74.30
12329;DHT22;6230;52.390;10.256;2023-11-21T13:32:52;11.90;74.30
12329;DHT22;6230;52.390;10.256;2023-11-21T13:35:18;11.90;74.30
12329;DHT22;6230;52.390;10.256;2023-11-21T13:37:51;12.00;74.30
12329;DHT22;6230;52.390;10.256;2023-11-21T13:40:22;11.90;75.00
12329;DHT22;6230;52.390;10.256;2023-11-21T13:42:51;12.00;74.20
12329;DHT22;6230;52.390;10.256;2023-11-21T13:45:23;12.00;74.20
12329;DHT22;6230;52.390;10.256;2023-11-21T13:47:51;11.90;74.10
12329;DHT22;6230;52.390;10.256;2023-11-21T13:50:20;11.90;74.10
12329;DHT22;6230;52.390;10.256;2023-11-21T13:52:49;11.90;74.10
12329;DHT22;6230;52.390;10.256;2023-11-21T13:55:17;11.90;74.20
12329;DHT22;6230;52.390;10.256;2023-11-21T13:57:43;11.80;74.20
12329;DHT22;6230;52.390;10.256;2023-11-21T14:00:11;11.80;74.10
12329;DHT22;6230;52.390;10.256;2023-11-21T14:02:57;11.70;74.40
12329;DHT22;6230;52.390;10.256;2023-11-21T14:05:27;11.60;74.50
12329;DHT22;6230;52.390;10.256;2023-11-21T14:07:55;11.60;74.40
12329;DHT22;6230;52.390;10.256;2023-11-21T14:10:26;11.60;74.50
12329;DHT22;6230;52.390;10.256;2023-11-21T14:12:52;11.60;74.50
12329;DHT22;6230;52.390;10.256;2023-11-21T14:15:17;11.60;74.40
12329;DHT22;6230;52.390;10.256;2023-11-21T14:17:44;11.60;74.40
12329;DHT22;6230;52.390;10.256;2023-11-21T14:20:10;11.60;74.50
12329;DHT22;6230;52.390;10.256;2023-11-21T14:22:41;11.60;74.40
12329;DHT22;6230;52.390;10.256;2023-11-21T14:25:07;11.60;74.30
12329;DHT22;6230;52.390;10.256;2023-11-21T14:27:33;11.60;74.10
12329;DHT22;6230;52.390;10.256;2023-11-21T14:29:58;11.60;74.10
12329;DHT22;6230;52.390;10.256;2023-11-21T14:32:25;11.50;73.90
12329;DHT22;6230;52.390;10.256;2023-11-21T14:34:52;11.60;74.00
12329;DHT22;6230;52.390;10.256;2023-11-21T14:37:18;11.50;73.90
12329;DHT22;6230;52.390;10.256;2023-11-21T14:39:45;11.40;73.90
12329;DHT22;6230;52.390;10.256;2023-11-21T14:42:13;11.40;73.90
12329;DHT22;6230;52.390;10.256;2023-11-21T14:44:40;11.30;73.90
12329;DHT22;6230;52.390;10.256;2023-11-21T14:47:07;11.30;74.70
12329;DHT22;6230;52.390;10.256;2023-11-21T14:49:42;11.30;74.00
12329;DHT22;6230;52.390;10.256;2023-11-21T14:52:21;11.20;73.90
12329;DHT22;6230;52.390;10.256;2023-11-21T14:55:04;11.20;73.90
12329;DHT22;6230;52.390;10.256;2023-11-21T14:57:48;11.20;73.90
12329;DHT22;6230;52.390;10.256;2023-11-21T15:00:17;11.10;73.70
12329;DHT22;6230;52.390;10.256;2023-11-21T15:02:59;11.10;73.90
12329;DHT22;6230;52.390;10.256;2023-11-21T15:05:25;11.10;73.80
12329;DHT22;6230;52.390;10.256;2023-11-21T15:07:53;11.10;73.80
12329;DHT22;6230;52.390;10.256;2023-11-21T15:10:21;11.00;73.70
12329;DHT22;6230;52.390;10.256;2023-11-21T15:12:55;11.10;73.80
12329;DHT22;6230;52.390;10.256;2023-11-21T15:15:21;11.10;73.80
12329;DHT22;6230;52.390;10.256;2023-11-21T15:17:47;11.10;73.70
12329;DHT22;6230;52.390;10.256;2023-11-21T15:20:13;11.10;73.70
12329;DHT22;6230;52.390;10.256;2023-11-21T15:22:47;11.10;73.60
12329;DHT22;6230;52.390;10.256;2023-11-21T15:25:12;11.10;73.50
12329;DHT22;6230;52.390;10.256;2023-11-21T15:27:38;11.10;73.50
12329;DHT22;6230;52.390;10.256;2023-11-21T15:30:05;11.10;73.50
12329;DHT22;6230;52.390;10.256;2023-11-21T15:32:31;11.10;73.50
12329;DHT22;6230;52.390;10.256;2023-11-21T15:34:56;11.10;73.40